sensor_id;sensor_type;location;lat;lon;timestamp;P1;durP1;ratioP1;P2;durP2;ratioP2
19219;SDS011;9744;49.364;7.484;2023-04-01T00:02:14;8.40;;;1.08;;
19219;SDS011;9744;49.364;7.484;2023-04-01T00:04:42;6.68;;;1.27;;
19219;SDS011;9744;49.364;7.484;2023-04-01T00:07:09;9.27;;;0.90;;
19219;SDS011;9744;49.364;7.484;2023-04-01T00:09:37;7.93;;;1.20;;
19219;SDS011;9744;49.364;7.484;2023-04-01T00:12:05;11.27;;;1.42;;
19219;SDS011;9744;49.364;7.484;2023-04-01T00:14:32;5.72;;;0.88;;
19219;SDS011;9744;49.364;7.484;2023-04-01T00:17:02;10.05;;;1.30;;
19219;SDS011;9744;49.364;7.484;2023-04-01T00:19:30;5.30;;;1.00;;
19219;SDS011;9744;49.364;7.484;2023-04-01T00:21:57;8.38;;;1.42;;
19219;SDS011;9744;49.364;7.484;2023-04-01T00:24:25;6.63;;;1.20;;
19219;SDS011;9744;49.364;7.484;2023-04-01T00:26:52;9.15;;;1.00;;
19219;SDS011;9744;49.364;7.484;2023-04-01T00:29:21;7.40;;;1.02;;
19219;SDS011;9744;49.364;7.484;2023-04-01T00:31:49;12.70;;;1.55;;
19219;SDS011;9744;49.364;7.484;2023-04-01T00:34:16;11.35;;;1.40;;
19219;SDS011;9744;49.364;7.484;2023-04-01T00:36:43;4.18;;;0.98;;
19219;SDS011;9744;49.364;7.484;2023-04-01T00:39:10;6.28;;;1.05;;
19219;SDS011;9744;49.364;7.484;2023-04-01T00:41:37;7.32;;;1.35;;
19219;SDS011;9744;49.364;7.484;2023-04-01T00:44:14;15.18;;;0.95;;
19219;SDS011;9744;49.364;7.484;2023-04-01T00:46:45;3.95;;;1.02;;
19219;SDS011;9744;49.364;7.484;2023-04-01T00:49:12;14.68;;;1.50;;
19219;SDS011;9744;49.364;7.484;2023-04-01T00:51:40;8.02;;;1.08;;
19219;SDS011;9744;49.364;7.484;2023-04-01T00:54:08;8.48;;;1.05;;
19219;SDS011;9744;49.364;7.484;2023-04-01T00:56:37;5.47;;;0.90;;
19219;SDS011;9744;49.364;7.484;2023-04-01T00:59:10;7.38;;;1.10;;
19219;SDS011;9744;49.364;7.484;2023-04-01T01:01:39;6.80;;;1.38;;
19219;SDS011;9744;49.364;7.484;2023-04-01T01:04:18;6.68;;;1.08;;
19219;SDS011;9744;49.364;7.484;2023-04-01T01:06:50;7.68;;;1.27;;
19219;SDS011;9744;49.364;7.484;2023-04-01T01:09:31;6.97;;;0.88;;
19219;SDS011;9744;49.364;7.484;2023-04-01T01:12:08;8.43;;;1.48;;
19219;SDS011;9744;49.364;7.484;2023-04-01T01:14:45;10.00;;;1.10;;
19219;SDS011;9744;49.364;7.484;2023-04-01T01:17:22;14.18;;;1.40;;
19219;SDS011;9744;49.364;7.484;2023-04-01T01:23:16;8.68;;;1.08;;
19219;SDS011;9744;49.364;7.484;2023-04-01T01:26:19;14.57;;;1.48;;
19219;SDS011;9744;49.364;7.484;2023-04-01T01:29:16;8.88;;;1.25;;
19219;SDS011;9744;49.364;7.484;2023-04-01T01:32:03;7.68;;;1.00;;
19219;SDS011;9744;49.364;7.484;2023-04-01T01:34:39;11.38;;;1.23;;
19219;SDS011;9744;49.364;7.484;2023-04-01T01:37:16;7.68;;;1.30;;
19219;SDS011;9744;49.364;7.484;2023-04-01T01:39:54;8.43;;;1.45;;
19219;SDS011;9744;49.364;7.484;2023-04-01T01:42:23;12.13;;;1.50;;
19219;SDS011;9744;49.364;7.484;2023-04-01T01:44:54;10.73;;;1.10;;
19219;SDS011;9744;49.364;7.484;2023-04-01T01:47:25;6.93;;;1.40;;
19219;SDS011;9744;49.364;7.484;2023-04-01T01:49:54;11.77;;;1.30;;
19219;SDS011;9744;49.364;7.484;2023-04-01T01:52:23;6.13;;;1.55;;
19219;SDS011;9744;49.364;7.484;2023-04-01T01:54:54;9.05;;;1.27;;
19219;SDS011;9744;49.364;7.484;2023-04-01T01:57:26;11.13;;;1.48;;
19219;SDS011;9744;49.364;7.484;2023-04-01T02:00:02;8.10;;;1.17;;
19219;SDS011;9744;49.364;7.484;2023-04-01T02:02:38;12.57;;;1.40;;
19219;SDS011;9744;49.364;7.484;2023-04-01T02:05:06;13.43;;;1.30;;
19219;SDS011;9744;49.364;7.484;2023-04-01T02:07:37;6.60;;;1.20;;
19219;SDS011;9744;49.364;7.484;2023-04-01T02:10:09;10.23;;;1.80;;
19219;SDS011;9744;49.364;7.484;2023-04-01T02:12:36;7.45;;;1.92;;
19219;SDS011;9744;49.364;7.484;2023-04-01T02:15:05;10.18;;;1.60;;
19219;SDS011;9744;49.364;7.484;2023-04-01T02:17:38;9.30;;;1.20;;
19219;SDS011;9744;49.364;7.484;2023-04-01T02:20:11;14.80;;;1.50;;
19219;SDS011;9744;49.364;7.484;2023-04-01T02:22:44;16.98;;;1.67;;
19219;SDS011;9744;49.364;7.484;2023-04-01T02:25:14;7.47;;;1.30;;
19219;SDS011;9744;49.364;7.484;2023-04-01T02:27:45;8.80;;;1.23;;
19219;SDS011;9744;49.364;7.484;2023-04-01T02:30:12;8.73;;;1.33;;
19219;SDS011;9744;49.364;7.484;2023-04-01T02:32:41;12.15;;;1.25;;
19219;SDS011;9744;49.364;7.484;2023-04-01T02:35:10;6.28;;;1.23;;
19219;SDS011;9744;49.364;7.484;2023-04-01T02:37:39;6.00;;;1.45;;
19219;SDS011;9744;49.364;7.484;2023-04-01T02:43:06;13.13;;;1.38;;
19219;SDS011;9744;49.364;7.484;2023-04-01T02:45:34;11.45;;;1.67;;
19219;SDS011;9744;49.364;7.484;2023-04-01T02:48:02;11.27;;;1.90;;
19219;SDS011;9744;49.364;7.484;2023-04-01T02:50:29;11.85;;;1.33;;
19219;SDS011;9744;49.364;7.484;2023-04-01T02:52:57;10.38;;;1.42;;
19219;SDS011;9744;49.364;7.484;2023-04-01T02:55:24;16.65;;;2.15;;
19219;SDS011;9744;49.364;7.484;2023-04-01T02:57:52;11.30;;;1.60;;
19219;SDS011;9744;49.364;7.484;2023-04-01T03:00:19;12.35;;;2.33;;
19219;SDS011;9744;49.364;7.484;2023-04-01T03:02:47;10.60;;;2.03;;
19219;SDS011;9744;49.364;7.484;2023-04-01T03:05:14;12.00;;;1.58;;
19219;SDS011;9744;49.364;7.484;2023-04-01T03:07:41;7.78;;;1.90;;
19219;SDS011;9744;49.364;7.484;2023-04-01T03:10:08;16.50;;;1.58;;
19219;SDS011;9744;49.364;7.484;2023-04-01T03:12:36;13.15;;;2.08;;
19219;SDS011;9744;49.364;7.484;2023-04-01T03:17:54;11.60;;;1.75;;
19219;SDS011;9744;49.364;7.484;2023-04-01T03:20:21;8.05;;;1.20;;
19219;SDS011;9744;49.364;7.484;2023-04-01T03:22:49;9.98;;;1.50;;
19219;SDS011;9744;49.364;7.484;2023-04-01T03:25:16;10.18;;;1.20;;
19219;SDS011;9744;49.364;7.484;2023-04-01T03:27:44;9.02;;;1.08;;
19219;SDS011;9744;49.364;7.484;2023-04-01T03:30:11;8.93;;;1.58;;
19219;SDS011;9744;49.364;7.484;2023-04-01T03:32:49;10.93;;;1.35;;
19219;SDS011;9744;49.364;7.484;2023-04-01T03:35:16;14.32;;;1.40;;
19219;SDS011;9744;49.364;7.484;2023-04-01T03:37:44;6.28;;;1.02;;
19219;SDS011;9744;49.364;7.484;2023-04-01T03:40:12;9.80;;;1.42;;
19219;SDS011;9744;49.364;7.484;2023-04-01T03:42:39;11.07;;;1.50;;
19219;SDS011;9744;49.364;7.484;2023-04-01T03:45:06;14.45;;;1.45;;
19219;SDS011;9744;49.364;7.484;2023-04-01T03:47:34;11.90;;;2.65;;
19219;SDS011;9744;49.364;7.484;2023-04-01T03:50:03;10.68;;;1.55;;
19219;SDS011;9744;49.364;7.484;2023-04-01T03:52:31;11.13;;;1.58;;
19219;SDS011;9744;49.364;7.484;2023-04-01T03:54:59;11.32;;;1.45;;
19219;SDS011;9744;49.364;7.484;2023-04-01T03:57:26;11.60;;;2.00;;
19219;SDS011;9744;49.364;7.484;2023-04-01T03:59:58;10.05;;;1.60;;
19219;SDS011;9744;49.364;7.484;2023-04-01T04:02:26;12.60;;;1.58;;
19219;SDS011;9744;49.364;7.484;2023-04-01T04:04:57;8.15;;;1.48;;
19219;SDS011;9744;49.364;7.484;2023-04-01T04:07:28;11.20;;;1.98;;
19219;SDS011;9744;49.364;7.484;2023-04-01T04:10:02;15.02;;;2.35;;
19219;SDS011;9744;49.364;7.484;2023-04-01T04:12:29;13.30;;;2.53;;
19219;SDS011;9744;49.364;7.484;2023-04-01T04:14:56;8.20;;;1.42;;
19219;SDS011;9744;49.364;7.484;2023-04-01T04:17:23;10.60;;;1.40;;
19219;SDS011;9744;49.364;7.484;2023-04-01T04:19:51;11.90;;;1.10;;
19219;SDS011;9744;49.364;7.484;2023-04-01T04:22:20;7.93;;;2.47;;
19219;SDS011;9744;49.364;7.484;2023-04-01T04:24:49;7.28;;;1.15;;
19219;SDS011;9744;49.364;7.484;2023-04-01T04:27:16;7.05;;;1.30;;
19219;SDS011;9744;49.364;7.484;2023-04-01T04:29:53;7.30;;;1.30;;
19219;SDS011;9744;49.364;7.484;2023-04-01T04:32:21;12.40;;;1.35;;
19219;SDS011;9744;49.364;7.484;2023-04-01T04:34:49;6.68;;;1.00;;
19219;SDS011;9744;49.364;7.484;2023-04-01T04:37:18;9.00;;;1.50;;
19219;SDS011;9744;49.364;7.484;2023-04-01T04:39:45;11.20;;;1.95;;
19219;SDS011;9744;49.364;7.484;2023-04-01T04:42:13;19.65;;;1.83;;
19219;SDS011;9744;49.364;7.484;2023-04-01T04:44:41;10.38;;;1.58;;
19219;SDS011;9744;49.364;7.484;2023-04-01T04:47:08;8.85;;;1.80;;
19219;SDS011;9744;49.364;7.484;2023-04-01T04:49:35;8.55;;;1.27;;
19219;SDS011;9744;49.364;7.484;2023-04-01T04:52:07;8.50;;;1.58;;
19219;SDS011;9744;49.364;7.484;2023-04-01T04:54:34;10.25;;;1.60;;
19219;SDS011;9744;49.364;7.484;2023-04-01T04:57:03;7.15;;;1.10;;
19219;SDS011;9744;49.364;7.484;2023-04-01T04:59:36;7.43;;;1.27;;
19219;SDS011;9744;49.364;7.484;2023-04-01T05:02:12;11.90;;;0.98;;
19219;SDS011;9744;49.364;7.484;2023-04-01T05:04:40;4.72;;;0.90;;
19219;SDS011;9744;49.364;7.484;2023-04-01T05:07:09;7.90;;;1.35;;
19219;SDS011;9744;49.364;7.484;2023-04-01T05:09:37;10.90;;;2.13;;
19219;SDS011;9744;49.364;7.484;2023-04-01T05:12:05;9.85;;;2.92;;
19219;SDS011;9744;49.364;7.484;2023-04-01T05:15:00;8.30;;;2.10;;
19219;SDS011;9744;49.364;7.484;2023-04-01T05:17:27;10.15;;;1.30;;
19219;SDS011;9744;49.364;7.484;2023-04-01T05:22:55;11.65;;;1.70;;
19219;SDS011;9744;49.364;7.484;2023-04-01T05:25:22;6.40;;;1.27;;
19219;SDS011;9744;49.364;7.484;2023-04-01T05:27:49;15.80;;;1.73;;
19219;SDS011;9744;49.364;7.484;2023-04-01T05:30:18;9.80;;;1.50;;
19219;SDS011;9744;49.364;7.484;2023-04-01T05:33:00;8.15;;;1.25;;
19219;SDS011;9744;49.364;7.484;2023-04-01T05:35:28;8.85;;;1.10;;
19219;SDS011;9744;49.364;7.484;2023-04-01T05:37:55;6.95;;;1.70;;
19219;SDS011;9744;49.364;7.484;2023-04-01T05:40:22;11.82;;;1.35;;
19219;SDS011;9744;49.364;7.484;2023-04-01T05:42:50;9.38;;;1.77;;
19219;SDS011;9744;49.364;7.484;2023-04-01T05:45:18;17.77;;;4.70;;
19219;SDS011;9744;49.364;7.484;2023-04-01T05:48:17;10.07;;;2.15;;
19219;SDS011;9744;49.364;7.484;2023-04-01T05:50:45;9.73;;;2.83;;
19219;SDS011;9744;49.364;7.484;2023-04-01T05:53:12;11.15;;;1.77;;
19219;SDS011;9744;49.364;7.484;2023-04-01T05:55:42;11.00;;;2.25;;
19219;SDS011;9744;49.364;7.484;2023-04-01T05:58:09;14.75;;;1.60;;
19219;SDS011;9744;49.364;7.484;2023-04-01T06:00:39;13.43;;;1.77;;
19219;SDS011;9744;49.364;7.484;2023-04-01T06:03:07;9.90;;;2.10;;
19219;SDS011;9744;49.364;7.484;2023-04-01T06:05:37;9.35;;;1.60;;
19219;SDS011;9744;49.364;7.484;2023-04-01T06:08:09;10.88;;;1.70;;
19219;SDS011;9744;49.364;7.484;2023-04-01T06:10:41;5.63;;;2.10;;
19219;SDS011;9744;49.364;7.484;2023-04-01T06:13:18;8.52;;;2.08;;
19219;SDS011;9744;49.364;7.484;2023-04-01T06:15:53;10.07;;;3.72;;
19219;SDS011;9744;49.364;7.484;2023-04-01T06:18:34;10.85;;;4.18;;
19219;SDS011;9744;49.364;7.484;2023-04-01T06:21:14;5.05;;;1.40;;
19219;SDS011;9744;49.364;7.484;2023-04-01T06:24:16;5.80;;;1.00;;
19219;SDS011;9744;49.364;7.484;2023-04-01T06:26:55;5.95;;;0.75;;
19219;SDS011;9744;49.364;7.484;2023-04-01T06:29:48;4.13;;;0.88;;
19219;SDS011;9744;49.364;7.484;2023-04-01T06:32:33;8.13;;;0.90;;
19219;SDS011;9744;49.364;7.484;2023-04-01T06:35:24;5.47;;;1.05;;
19219;SDS011;9744;49.364;7.484;2023-04-01T06:38:17;9.18;;;2.63;;
19219;SDS011;9744;49.364;7.484;2023-04-01T06:41:06;6.75;;;1.45;;
19219;SDS011;9744;49.364;7.484;2023-04-01T06:44:07;4.18;;;1.40;;
19219;SDS011;9744;49.364;7.484;2023-04-01T06:47:25;7.88;;;1.38;;
19219;SDS011;9744;49.364;7.484;2023-04-01T06:50:23;6.47;;;1.52;;
19219;SDS011;9744;49.364;7.484;2023-04-01T06:53:31;5.60;;;1.30;;
19219;SDS011;9744;49.364;7.484;2023-04-01T06:56:08;3.35;;;1.00;;
19219;SDS011;9744;49.364;7.484;2023-04-01T06:58:39;3.85;;;1.30;;
19219;SDS011;9744;49.364;7.484;2023-04-01T07:01:14;1.98;;;1.00;;
19219;SDS011;9744;49.364;7.484;2023-04-01T07:03:47;3.78;;;1.20;;
19219;SDS011;9744;49.364;7.484;2023-04-01T07:06:23;4.32;;;1.23;;
19219;SDS011;9744;49.364;7.484;2023-04-01T07:08:55;3.50;;;1.00;;
19219;SDS011;9744;49.364;7.484;2023-04-01T07:11:47;8.48;;;2.00;;
19219;SDS011;9744;49.364;7.484;2023-04-01T07:14:33;5.57;;;1.17;;
19219;SDS011;9744;49.364;7.484;2023-04-01T07:17:04;2.83;;;0.80;;
19219;SDS011;9744;49.364;7.484;2023-04-01T07:19:41;6.57;;;0.90;;
19219;SDS011;9744;49.364;7.484;2023-04-01T07:22:16;3.75;;;1.10;;
19219;SDS011;9744;49.364;7.484;2023-04-01T07:25:11;6.47;;;1.13;;
19219;SDS011;9744;49.364;7.484;2023-04-01T07:27:43;5.80;;;1.20;;
19219;SDS011;9744;49.364;7.484;2023-04-01T07:32:45;2.03;;;0.80;;
19219;SDS011;9744;49.364;7.484;2023-04-01T07:35:22;2.90;;;1.13;;
19219;SDS011;9744;49.364;7.484;2023-04-01T07:38:03;2.38;;;0.90;;
19219;SDS011;9744;49.364;7.484;2023-04-01T07:40:43;5.07;;;1.92;;
19219;SDS011;9744;49.364;7.484;2023-04-01T07:43:29;2.97;;;1.13;;
19219;SDS011;9744;49.364;7.484;2023-04-01T07:46:31;2.28;;;1.00;;
19219;SDS011;9744;49.364;7.484;2023-04-01T07:49:08;3.30;;;1.42;;
19219;SDS011;9744;49.364;7.484;2023-04-01T07:51:44;7.03;;;1.77;;
19219;SDS011;9744;49.364;7.484;2023-04-01T07:58:28;2.40;;;1.48;;
19219;SDS011;9744;49.364;7.484;2023-04-01T08:01:02;4.47;;;1.65;;
19219;SDS011;9744;49.364;7.484;2023-04-01T08:03:44;5.90;;;1.65;;
19219;SDS011;9744;49.364;7.484;2023-04-01T08:06:27;2.85;;;1.60;;
19219;SDS011;9744;49.364;7.484;2023-04-01T08:09:02;7.03;;;1.73;;
19219;SDS011;9744;49.364;7.484;2023-04-01T08:11:57;1.40;;;1.10;;
19219;SDS011;9744;49.364;7.484;2023-04-01T08:14:56;2.95;;;1.35;;
19219;SDS011;9744;49.364;7.484;2023-04-01T08:17:52;5.25;;;1.67;;
19219;SDS011;9744;49.364;7.484;2023-04-01T08:20:28;1.98;;;1.30;;
19219;SDS011;9744;49.364;7.484;2023-04-01T08:23:00;2.35;;;1.30;;
19219;SDS011;9744;49.364;7.484;2023-04-01T08:28:10;5.20;;;1.95;;
19219;SDS011;9744;49.364;7.484;2023-04-01T08:30:44;3.33;;;1.30;;
19219;SDS011;9744;49.364;7.484;2023-04-01T08:33:18;4.03;;;1.02;;
19219;SDS011;9744;49.364;7.484;2023-04-01T08:35:55;2.45;;;0.90;;
19219;SDS011;9744;49.364;7.484;2023-04-01T08:38:26;8.40;;;2.20;;
19219;SDS011;9744;49.364;7.484;2023-04-01T08:41:01;3.88;;;2.28;;
19219;SDS011;9744;49.364;7.484;2023-04-01T08:44:26;3.20;;;1.15;;
19219;SDS011;9744;49.364;7.484;2023-04-01T08:47:13;3.15;;;0.75;;
19219;SDS011;9744;49.364;7.484;2023-04-01T08:50:05;1.13;;;0.63;;
19219;SDS011;9744;49.364;7.484;2023-04-01T08:53:17;3.90;;;1.15;;
19219;SDS011;9744;49.364;7.484;2023-04-01T08:55:54;2.97;;;0.80;;
19219;SDS011;9744;49.364;7.484;2023-04-01T09:01:36;2.60;;;0.73;;
19219;SDS011;9744;49.364;7.484;2023-04-01T09:04:52;2.20;;;0.80;;
19219;SDS011;9744;49.364;7.484;2023-04-01T09:07:40;7.90;;;4.32;;
19219;SDS011;9744;49.364;7.484;2023-04-01T09:10:25;0.68;;;0.68;;
19219;SDS011;9744;49.364;7.484;2023-04-01T09:13:44;1.10;;;0.40;;
19219;SDS011;9744;49.364;7.484;2023-04-01T09:19:50;1.05;;;0.70;;
19219;SDS011;9744;49.364;7.484;2023-04-01T09:22:32;1.77;;;0.93;;
19219;SDS011;9744;49.364;7.484;2023-04-01T09:25:15;0.90;;;0.75;;
19219;SDS011;9744;49.364;7.484;2023-04-01T09:28:01;2.05;;;0.93;;
19219;SDS011;9744;49.364;7.484;2023-04-01T09:30:52;3.55;;;0.90;;
19219;SDS011;9744;49.364;7.484;2023-04-01T09:34:12;2.47;;;0.40;;
19219;SDS011;9744;49.364;7.484;2023-04-01T09:37:13;2.65;;;1.60;;
19219;SDS011;9744;49.364;7.484;2023-04-01T09:42:49;2.03;;;0.40;;
19219;SDS011;9744;49.364;7.484;2023-04-01T09:45:37;1.67;;;0.50;;
19219;SDS011;9744;49.364;7.484;2023-04-01T09:48:17;1.33;;;0.73;;
19219;SDS011;9744;49.364;7.484;2023-04-01T09:51:03;0.95;;;0.60;;
19219;SDS011;9744;49.364;7.484;2023-04-01T09:53:43;0.68;;;0.50;;
19219;SDS011;9744;49.364;7.484;2023-04-01T09:56:29;2.25;;;0.45;;
19219;SDS011;9744;49.364;7.484;2023-04-01T09:59:28;2.70;;;1.23;;
19219;SDS011;9744;49.364;7.484;2023-04-01T10:28:11;0.85;;;0.60;;
19219;SDS011;9744;49.364;7.484;2023-04-01T10:31:42;0.50;;;0.50;;
19219;SDS011;9744;49.364;7.484;2023-04-01T10:34:54;0.70;;;0.70;;
19219;SDS011;9744;49.364;7.484;2023-04-01T10:40:56;0.77;;;0.70;;
19219;SDS011;9744;49.364;7.484;2023-04-01T10:47:37;1.20;;;0.77;;
19219;SDS011;9744;49.364;7.484;2023-04-01T10:50:20;1.15;;;0.60;;
19219;SDS011;9744;49.364;7.484;2023-04-01T10:56:33;2.88;;;1.77;;
19219;SDS011;9744;49.364;7.484;2023-04-01T11:03:15;1.05;;;0.75;;
19219;SDS011;9744;49.364;7.484;2023-04-01T11:06:50;1.17;;;0.80;;
19219;SDS011;9744;49.364;7.484;2023-04-01T11:09:47;3.33;;;0.55;;
19219;SDS011;9744;49.364;7.484;2023-04-01T11:13:15;0.75;;;0.70;;
19219;SDS011;9744;49.364;7.484;2023-04-01T11:19:33;0.50;;;0.50;;
19219;SDS011;9744;49.364;7.484;2023-04-01T11:22:29;0.50;;;0.50;;
19219;SDS011;9744;49.364;7.484;2023-04-01T11:25:20;1.63;;;1.10;;
19219;SDS011;9744;49.364;7.484;2023-04-01T11:28:22;0.95;;;0.80;;
19219;SDS011;9744;49.364;7.484;2023-04-01T11:31:23;1.10;;;1.02;;
19219;SDS011;9744;49.364;7.484;2023-04-01T11:34:02;0.70;;;0.70;;
19219;SDS011;9744;49.364;7.484;2023-04-01T11:36:43;0.98;;;0.47;;
19219;SDS011;9744;49.364;7.484;2023-04-01T11:39:31;0.80;;;0.60;;
19219;SDS011;9744;49.364;7.484;2023-04-01T11:42:26;0.73;;;0.73;;
19219;SDS011;9744;49.364;7.484;2023-04-01T11:45:33;1.65;;;0.90;;
19219;SDS011;9744;49.364;7.484;2023-04-01T11:48:14;1.75;;;0.65;;
19219;SDS011;9744;49.364;7.484;2023-04-01T11:54:06;1.30;;;0.60;;
19219;SDS011;9744;49.364;7.484;2023-04-01T12:00:47;0.75;;;0.57;;
19219;SDS011;9744;49.364;7.484;2023-04-01T12:03:37;2.35;;;0.80;;
19219;SDS011;9744;49.364;7.484;2023-04-01T12:06:39;0.93;;;0.80;;
19219;SDS011;9744;49.364;7.484;2023-04-01T12:09:16;0.65;;;0.60;;
19219;SDS011;9744;49.364;7.484;2023-04-01T12:11:53;0.50;;;0.47;;
19219;SDS011;9744;49.364;7.484;2023-04-01T12:14:32;2.53;;;0.70;;
19219;SDS011;9744;49.364;7.484;2023-04-01T12:17:09;0.70;;;0.70;;
19219;SDS011;9744;49.364;7.484;2023-04-01T12:19:44;2.15;;;0.70;;
19219;SDS011;9744;49.364;7.484;2023-04-01T12:22:36;1.80;;;0.52;;
19219;SDS011;9744;49.364;7.484;2023-04-01T12:25:27;0.70;;;0.60;;
19219;SDS011;9744;49.364;7.484;2023-04-01T12:28:18;1.30;;;0.40;;
19219;SDS011;9744;49.364;7.484;2023-04-01T12:30:51;0.82;;;0.50;;
19219;SDS011;9744;49.364;7.484;2023-04-01T12:36:30;1.70;;;0.80;;
19219;SDS011;9744;49.364;7.484;2023-04-01T12:39:25;2.25;;;0.60;;
19219;SDS011;9744;49.364;7.484;2023-04-01T12:42:07;6.35;;;0.90;;
19219;SDS011;9744;49.364;7.484;2023-04-01T12:44:47;4.30;;;1.35;;
19219;SDS011;9744;49.364;7.484;2023-04-01T12:53:16;1.30;;;0.70;;
19219;SDS011;9744;49.364;7.484;2023-04-01T12:56:01;1.30;;;0.82;;
19219;SDS011;9744;49.364;7.484;2023-04-01T12:58:47;2.55;;;0.77;;
19219;SDS011;9744;49.364;7.484;2023-04-01T13:04:37;1.92;;;0.70;;
19219;SDS011;9744;49.364;7.484;2023-04-01T13:07:24;2.08;;;0.90;;
19219;SDS011;9744;49.364;7.484;2023-04-01T13:10:06;1.50;;;0.70;;
19219;SDS011;9744;49.364;7.484;2023-04-01T13:12:45;2.20;;;0.90;;
19219;SDS011;9744;49.364;7.484;2023-04-01T13:15:33;0.63;;;0.57;;
19219;SDS011;9744;49.364;7.484;2023-04-01T13:18:11;4.38;;;0.93;;
19219;SDS011;9744;49.364;7.484;2023-04-01T13:20:48;4.72;;;1.00;;
19219;SDS011;9744;49.364;7.484;2023-04-01T13:23:27;3.75;;;0.93;;
19219;SDS011;9744;49.364;7.484;2023-04-01T13:26:06;3.22;;;0.90;;
19219;SDS011;9744;49.364;7.484;2023-04-01T13:28:40;3.00;;;0.93;;
19219;SDS011;9744;49.364;7.484;2023-04-01T13:31:23;1.40;;;0.73;;
19219;SDS011;9744;49.364;7.484;2023-04-01T13:33:59;3.00;;;0.80;;
19219;SDS011;9744;49.364;7.484;2023-04-01T13:36:41;2.28;;;0.80;;
19219;SDS011;9744;49.364;7.484;2023-04-01T13:39:21;4.63;;;0.70;;
19219;SDS011;9744;49.364;7.484;2023-04-01T13:42:01;3.53;;;0.70;;
19219;SDS011;9744;49.364;7.484;2023-04-01T13:44:41;1.58;;;0.52;;
19219;SDS011;9744;49.364;7.484;2023-04-01T13:47:27;5.38;;;0.73;;
19219;SDS011;9744;49.364;7.484;2023-04-01T13:53:51;3.88;;;0.55;;
19219;SDS011;9744;49.364;7.484;2023-04-01T13:56:44;3.85;;;0.68;;
19219;SDS011;9744;49.364;7.484;2023-04-01T13:59:46;0.68;;;0.40;;
19219;SDS011;9744;49.364;7.484;2023-04-01T14:02:37;1.88;;;0.63;;
19219;SDS011;9744;49.364;7.484;2023-04-01T14:05:36;1.77;;;0.75;;
19219;SDS011;9744;49.364;7.484;2023-04-01T14:08:22;3.45;;;0.80;;
19219;SDS011;9744;49.364;7.484;2023-04-01T14:11:10;4.20;;;0.95;;
19219;SDS011;9744;49.364;7.484;2023-04-01T14:13:44;3.35;;;1.05;;
19219;SDS011;9744;49.364;7.484;2023-04-01T14:16:47;2.50;;;0.70;;
19219;SDS011;9744;49.364;7.484;2023-04-01T14:20:13;4.57;;;0.80;;
19219;SDS011;9744;49.364;7.484;2023-04-01T14:22:53;3.70;;;1.10;;
19219;SDS011;9744;49.364;7.484;2023-04-01T14:28:46;1.23;;;0.90;;
19219;SDS011;9744;49.364;7.484;2023-04-01T14:31:31;3.70;;;0.95;;
19219;SDS011;9744;49.364;7.484;2023-04-01T14:34:23;3.75;;;0.95;;
19219;SDS011;9744;49.364;7.484;2023-04-01T14:37:03;4.50;;;1.25;;
19219;SDS011;9744;49.364;7.484;2023-04-01T14:42:52;5.22;;;1.25;;
19219;SDS011;9744;49.364;7.484;2023-04-01T14:45:52;4.03;;;0.80;;
19219;SDS011;9744;49.364;7.484;2023-04-01T14:48:32;2.55;;;0.93;;
19219;SDS011;9744;49.364;7.484;2023-04-01T14:51:03;2.60;;;1.48;;
19219;SDS011;9744;49.364;7.484;2023-04-01T14:53:41;3.13;;;0.70;;
19219;SDS011;9744;49.364;7.484;2023-04-01T14:56:16;4.85;;;0.85;;
19219;SDS011;9744;49.364;7.484;2023-04-01T14:59:04;2.25;;;0.88;;
19219;SDS011;9744;49.364;7.484;2023-04-01T15:01:40;1.08;;;0.60;;
19219;SDS011;9744;49.364;7.484;2023-04-01T15:04:23;2.70;;;0.80;;
19219;SDS011;9744;49.364;7.484;2023-04-01T15:10:08;3.97;;;1.33;;
19219;SDS011;9744;49.364;7.484;2023-04-01T15:12:58;2.75;;;1.10;;
19219;SDS011;9744;49.364;7.484;2023-04-01T15:15:39;6.88;;;1.30;;
19219;SDS011;9744;49.364;7.484;2023-04-01T15:18:26;3.85;;;0.70;;
19219;SDS011;9744;49.364;7.484;2023-04-01T15:21:06;0.73;;;0.60;;
19219;SDS011;9744;49.364;7.484;2023-04-01T15:23:45;3.65;;;0.95;;
19219;SDS011;9744;49.364;7.484;2023-04-01T15:26:28;3.72;;;0.93;;
19219;SDS011;9744;49.364;7.484;2023-04-01T15:31:58;2.33;;;0.70;;
19219;SDS011;9744;49.364;7.484;2023-04-01T15:34:34;2.17;;;0.65;;
19219;SDS011;9744;49.364;7.484;2023-04-01T15:37:12;1.35;;;0.70;;
19219;SDS011;9744;49.364;7.484;2023-04-01T15:39:49;1.38;;;0.80;;
19219;SDS011;9744;49.364;7.484;2023-04-01T15:42:24;4.50;;;1.40;;
19219;SDS011;9744;49.364;7.484;2023-04-01T15:45:08;3.33;;;1.40;;
19219;SDS011;9744;49.364;7.484;2023-04-01T15:47:53;3.20;;;1.10;;
19219;SDS011;9744;49.364;7.484;2023-04-01T15:53:31;2.50;;;0.85;;
19219;SDS011;9744;49.364;7.484;2023-04-01T15:56:24;3.03;;;0.80;;
19219;SDS011;9744;49.364;7.484;2023-04-01T15:59:01;2.05;;;0.70;;
19219;SDS011;9744;49.364;7.484;2023-04-01T16:01:39;2.90;;;1.20;;
19219;SDS011;9744;49.364;7.484;2023-04-01T16:04:21;2.03;;;0.80;;
19219;SDS011;9744;49.364;7.484;2023-04-01T16:07:11;1.10;;;0.80;;
19219;SDS011;9744;49.364;7.484;2023-04-01T16:10:05;2.38;;;1.27;;
19219;SDS011;9744;49.364;7.484;2023-04-01T16:12:52;1.20;;;0.70;;
19219;SDS011;9744;49.364;7.484;2023-04-01T16:15:34;1.98;;;0.88;;
19219;SDS011;9744;49.364;7.484;2023-04-01T16:18:18;5.20;;;1.20;;
19219;SDS011;9744;49.364;7.484;2023-04-01T16:21:00;3.17;;;0.98;;
19219;SDS011;9744;49.364;7.484;2023-04-01T16:23:35;1.67;;;0.63;;
19219;SDS011;9744;49.364;7.484;2023-04-01T16:26:07;4.22;;;1.10;;
19219;SDS011;9744;49.364;7.484;2023-04-01T16:28:40;3.03;;;0.90;;
19219;SDS011;9744;49.364;7.484;2023-04-01T16:31:23;4.55;;;1.08;;
19219;SDS011;9744;49.364;7.484;2023-04-01T16:33:58;4.15;;;1.10;;
19219;SDS011;9744;49.364;7.484;2023-04-01T16:36:33;0.88;;;0.75;;
19219;SDS011;9744;49.364;7.484;2023-04-01T16:42:05;3.38;;;1.02;;
19219;SDS011;9744;49.364;7.484;2023-04-01T16:44:47;3.22;;;0.77;;
19219;SDS011;9744;49.364;7.484;2023-04-01T16:47:20;2.67;;;1.10;;
19219;SDS011;9744;49.364;7.484;2023-04-01T16:49:54;0.73;;;0.60;;
19219;SDS011;9744;49.364;7.484;2023-04-01T16:52:34;3.67;;;1.38;;
19219;SDS011;9744;49.364;7.484;2023-04-01T16:55:14;3.70;;;1.40;;
19219;SDS011;9744;49.364;7.484;2023-04-01T16:57:45;8.13;;;3.53;;
19219;SDS011;9744;49.364;7.484;2023-04-01T17:00:16;0.95;;;0.88;;
19219;SDS011;9744;49.364;7.484;2023-04-01T17:02:54;2.47;;;0.63;;
19219;SDS011;9744;49.364;7.484;2023-04-01T17:05:36;2.85;;;1.88;;
19219;SDS011;9744;49.364;7.484;2023-04-01T17:08:10;3.28;;;0.93;;
19219;SDS011;9744;49.364;7.484;2023-04-01T17:10:51;3.38;;;0.80;;
19219;SDS011;9744;49.364;7.484;2023-04-01T17:13:34;2.08;;;1.20;;
19219;SDS011;9744;49.364;7.484;2023-04-01T17:16:10;4.10;;;1.23;;
19219;SDS011;9744;49.364;7.484;2023-04-01T17:18:59;1.50;;;0.88;;
19219;SDS011;9744;49.364;7.484;2023-04-01T17:21:44;2.05;;;0.98;;
19219;SDS011;9744;49.364;7.484;2023-04-01T17:24:22;7.65;;;1.23;;
19219;SDS011;9744;49.364;7.484;2023-04-01T17:27:01;5.22;;;1.00;;
19219;SDS011;9744;49.364;7.484;2023-04-01T17:29:40;1.25;;;1.00;;
19219;SDS011;9744;49.364;7.484;2023-04-01T17:32:24;2.35;;;0.82;;
19219;SDS011;9744;49.364;7.484;2023-04-01T17:35:04;1.52;;;1.35;;
19219;SDS011;9744;49.364;7.484;2023-04-01T17:37:38;4.85;;;1.38;;
19219;SDS011;9744;49.364;7.484;2023-04-01T17:40:15;3.22;;;1.17;;
19219;SDS011;9744;49.364;7.484;2023-04-01T17:42:58;4.63;;;1.50;;
19219;SDS011;9744;49.364;7.484;2023-04-01T17:45:36;3.25;;;1.70;;
19219;SDS011;9744;49.364;7.484;2023-04-01T17:48:14;2.80;;;1.33;;
19219;SDS011;9744;49.364;7.484;2023-04-01T17:50:55;1.83;;;1.33;;
19219;SDS011;9744;49.364;7.484;2023-04-01T17:53:35;2.40;;;0.98;;
19219;SDS011;9744;49.364;7.484;2023-04-01T17:56:12;1.55;;;1.05;;
19219;SDS011;9744;49.364;7.484;2023-04-01T17:58:48;1.90;;;1.10;;
19219;SDS011;9744;49.364;7.484;2023-04-01T18:01:26;3.70;;;1.17;;
19219;SDS011;9744;49.364;7.484;2023-04-01T18:04:18;2.97;;;1.40;;
19219;SDS011;9744;49.364;7.484;2023-04-01T18:10:01;4.45;;;1.27;;